sensor_id;sensor_type;location;lat;lon;timestamp;pressure;altitude;pressure_sealevel;temperature;humidity
70589;BME280;58152;49.202;18.744;2023-02-28T00:01:13;98357.06;;;-0.81;53.37
70589;BME280;58152;49.202;18.744;2023-02-28T00:03:39;98356.16;;;-0.83;53.66
70589;BME280;58152;49.202;18.744;2023-02-28T00:06:05;98351.88;;;-0.84;53.21
70589;BME280;58152;49.202;18.744;2023-02-28T00:08:31;98357.88;;;-0.84;53.72
70589;BME280;58152;49.202;18.744;2023-02-28T00:11:04;98353.56;;;-0.86;53.99
70589;BME280;58152;49.202;18.744;2023-02-28T00:13:30;98354.38;;;-0.89;53.75
70589;BME280;58152;49.202;18.744;2023-02-28T00:16:03;98355.16;;;-0.94;53.57
70589;BME280;58152;49.202;18.744;2023-02-28T00:18:29;98361.09;;;-0.97;53.88
70589;BME280;58152;49.202;18.744;2023-02-28T00:20:55;98360.16;;;-1.02;54.58
70589;BME280;58152;49.202;18.744;2023-02-28T00:23:20;98363.59;;;-1.02;54.29
70589;BME280;58152;49.202;18.744;2023-02-28T00:25:46;98361.00;;;-1.05;54.39
70589;BME280;58152;49.202;18.744;2023-02-28T00:28:11;98373.84;;;-1.06;54.76
70589;BME280;58152;49.202;18.744;2023-02-28T00:30:37;98367.88;;;-1.05;54.26
70589;BME280;58152;49.202;18.744;2023-02-28T00:33:02;98367.81;;;-1.08;54.62
70589;BME280;58152;49.202;18.744;2023-02-28T00:35:27;98375.53;;;-1.08;54.31
70589;BME280;58152;49.202;18.744;2023-02-28T00:37:53;98366.88;;;-1.10;54.97
70589;BME280;58152;49.202;18.744;2023-02-28T00:40:18;98366.88;;;-1.10;54.63
70589;BME280;58152;49.202;18.744;2023-02-28T00:42:44;98375.50;;;-1.10;54.40
70589;BME280;58152;49.202;18.744;2023-02-28T00:45:09;98364.28;;;-1.13;54.55
70589;BME280;58152;49.202;18.744;2023-02-28T00:47:35;98365.13;;;-1.14;54.98
70589;BME280;58152;49.202;18.744;2023-02-28T00:50:00;98356.41;;;-1.22;54.54
70589;BME280;58152;49.202;18.744;2023-02-28T00:52:26;98365.84;;;-1.21;54.68
70589;BME280;58152;49.202;18.744;2023-02-28T00:54:51;98366.66;;;-1.24;55.25
70589;BME280;58152;49.202;18.744;2023-02-28T00:57:17;98360.53;;;-1.31;55.33
70589;BME280;58152;49.202;18.744;2023-02-28T00:59:42;98361.47;;;-1.27;55.48
70589;BME280;58152;49.202;18.744;2023-02-28T01:02:08;98361.41;;;-1.32;55.02
70589;BME280;58152;49.202;18.744;2023-02-28T01:04:33;98346.75;;;-1.34;55.18
70589;BME280;58152;49.202;18.744;2023-02-28T01:06:59;98357.00;;;-1.37;55.20
70589;BME280;58152;49.202;18.744;2023-02-28T01:09:24;98346.66;;;-1.40;54.92
70589;BME280;58152;49.202;18.744;2023-02-28T01:11:50;98333.69;;;-1.46;55.15
70589;BME280;58152;49.202;18.744;2023-02-28T01:14:16;98349.22;;;-1.42;54.84
70589;BME280;58152;49.202;18.744;2023-02-28T01:16:43;98339.63;;;-1.47;55.63
70589;BME280;58152;49.202;18.744;2023-02-28T01:19:09;98336.19;;;-1.51;55.36
70589;BME280;58152;49.202;18.744;2023-02-28T01:21:35;98327.56;;;-1.51;55.44
70589;BME280;58152;49.202;18.744;2023-02-28T01:24:01;98338.69;;;-1.54;55.50
70589;BME280;58152;49.202;18.744;2023-02-28T01:26:27;98341.19;;;-1.57;55.25
70589;BME280;58152;49.202;18.744;2023-02-28T01:28:52;98341.16;;;-1.59;55.86
70589;BME280;58152;49.202;18.744;2023-02-28T01:31:19;98341.09;;;-1.63;56.30
70589;BME280;58152;49.202;18.744;2023-02-28T01:33:46;98339.38;;;-1.63;56.26
70589;BME280;58152;49.202;18.744;2023-02-28T01:36:14;98329.84;;;-1.67;55.85
70589;BME280;58152;49.202;18.744;2023-02-28T01:38:40;98340.16;;;-1.67;55.82
70589;BME280;58152;49.202;18.744;2023-02-28T01:41:06;98328.06;;;-1.71;56.66
70589;BME280;58152;49.202;18.744;2023-02-28T01:43:56;98337.50;;;-1.70;57.01
70589;BME280;58152;49.202;18.744;2023-02-28T01:46:23;98346.06;;;-1.72;56.32
70589;BME280;58152;49.202;18.744;2023-02-28T01:48:57;98352.09;;;-1.70;56.32
70589;BME280;58152;49.202;18.744;2023-02-28T01:51:46;98345.97;;;-1.77;57.13
70589;BME280;58152;49.202;18.744;2023-02-28T01:56:51;98352.75;;;-1.82;56.65
70589;BME280;58152;49.202;18.744;2023-02-28T01:59:35;98349.34;;;-1.80;56.76
70589;BME280;58152;49.202;18.744;2023-02-28T02:02:03;98346.75;;;-1.81;56.78
70589;BME280;58152;49.202;18.744;2023-02-28T02:04:38;98338.94;;;-1.86;56.61
70589;BME280;58152;49.202;18.744;2023-02-28T02:07:06;98358.78;;;-1.80;56.72
70589;BME280;58152;49.202;18.744;2023-02-28T02:09:32;98353.59;;;-1.83;57.20
70589;BME280;58152;49.202;18.744;2023-02-28T02:11:59;98358.66;;;-1.88;57.04
70589;BME280;58152;49.202;18.744;2023-02-28T02:17:44;98351.66;;;-1.93;56.61
70589;BME280;58152;49.202;18.744;2023-02-28T02:28:28;98354.19;;;-1.96;57.27
70589;BME280;58152;49.202;18.744;2023-02-28T02:36:33;98347.28;;;-1.97;56.64
70589;BME280;58152;49.202;18.744;2023-02-28T02:39:18;98344.59;;;-2.03;57.77
70589;BME280;58152;49.202;18.744;2023-02-28T02:41:53;98343.66;;;-2.07;57.52
70589;BME280;58152;49.202;18.744;2023-02-28T02:46:48;98337.56;;;-2.12;57.10
70589;BME280;58152;49.202;18.744;2023-02-28T02:49:22;98346.97;;;-2.13;57.40
70589;BME280;58152;49.202;18.744;2023-02-28T02:51:52;98351.22;;;-2.15;57.36
70589;BME280;58152;49.202;18.744;2023-02-28T02:54:31;98348.59;;;-2.18;57.82
70589;BME280;58152;49.202;18.744;2023-02-28T02:57:02;98340.88;;;-2.18;57.23
70589;BME280;58152;49.202;18.744;2023-02-28T02:59:30;98355.53;;;-2.14;56.95
70589;BME280;58152;49.202;18.744;2023-02-28T03:01:59;98346.03;;;-2.18;57.68
70589;BME280;58152;49.202;18.744;2023-02-28T03:04:30;98345.22;;;-2.15;57.07
70589;BME280;58152;49.202;18.744;2023-02-28T03:06:57;98350.31;;;-2.17;57.16
70589;BME280;58152;49.202;18.744;2023-02-28T03:09:24;98352.00;;;-2.19;57.21
70589;BME280;58152;49.202;18.744;2023-02-28T03:11:52;98352.00;;;-2.19;57.73
70589;BME280;58152;49.202;18.744;2023-02-28T03:30:38;98362.00;;;-2.33;58.40
70589;BME280;58152;49.202;18.744;2023-02-28T03:33:19;98358.47;;;-2.36;58.81
70589;BME280;58152;49.202;18.744;2023-02-28T03:35:57;98359.22;;;-2.42;58.81
70589;BME280;58152;49.202;18.744;2023-02-28T03:41:09;98377.34;;;-2.36;58.23
70589;BME280;58152;49.202;18.744;2023-02-28T03:43:40;98369.44;;;-2.43;58.04
70589;BME280;58152;49.202;18.744;2023-02-28T03:46:10;98378.00;;;-2.44;59.25
70589;BME280;58152;49.202;18.744;2023-02-28T03:48:43;98377.13;;;-2.46;58.21
70589;BME280;58152;49.202;18.744;2023-02-28T03:51:12;98381.31;;;-2.50;59.18
70589;BME280;58152;49.202;18.744;2023-02-28T03:53:43;98382.19;;;-2.49;58.50
70589;BME280;58152;49.202;18.744;2023-02-28T03:56:18;98386.44;;;-2.51;58.86
70589;BME280;58152;49.202;18.744;2023-02-28T03:59:05;98390.69;;;-2.52;58.83
70589;BME280;58152;49.202;18.744;2023-02-28T04:01:40;98377.66;;;-2.60;59.04
70589;BME280;58152;49.202;18.744;2023-02-28T04:04:07;98378.53;;;-2.59;59.88
70589;BME280;58152;49.202;18.744;2023-02-28T04:06:34;98384.63;;;-2.56;58.90
70589;BME280;58152;49.202;18.744;2023-02-28T04:09:01;98377.78;;;-2.55;59.08
70589;BME280;58152;49.202;18.744;2023-02-28T04:11:41;98380.44;;;-2.52;59.25
70589;BME280;58152;49.202;18.744;2023-02-28T04:14:08;98380.53;;;-2.47;58.90
70589;BME280;58152;49.202;18.744;2023-02-28T04:16:36;98385.66;;;-2.47;59.53
70589;BME280;58152;49.202;18.744;2023-02-28T04:19:03;98380.53;;;-2.47;59.61
70589;BME280;58152;49.202;18.744;2023-02-28T04:21:32;98383.97;;;-2.47;59.26
70589;BME280;58152;49.202;18.744;2023-02-28T04:23:58;98383.97;;;-2.47;59.29
70589;BME280;58152;49.202;18.744;2023-02-28T04:26:28;98386.56;;;-2.44;58.70
70589;BME280;58152;49.202;18.744;2023-02-28T04:28:55;98385.66;;;-2.47;59.71
70589;BME280;58152;49.202;18.744;2023-02-28T04:31:20;98387.41;;;-2.46;59.06
70589;BME280;58152;49.202;18.744;2023-02-28T04:33:46;98381.41;;;-2.47;59.03
70589;BME280;58152;49.202;18.744;2023-02-28T04:36:11;98379.72;;;-2.45;58.87
70589;BME280;58152;49.202;18.744;2023-02-28T04:38:39;98390.00;;;-2.43;59.47
70589;BME280;58152;49.202;18.744;2023-02-28T04:41:05;98390.91;;;-2.43;58.90
70589;BME280;58152;49.202;18.744;2023-02-28T04:43:31;98384.84;;;-2.45;58.72
70589;BME280;58152;49.202;18.744;2023-02-28T04:45:58;98392.59;;;-2.43;59.52
70589;BME280;58152;49.202;18.744;2023-02-28T04:48:27;98396.06;;;-2.43;59.82
70589;BME280;58152;49.202;18.744;2023-02-28T04:50:53;98396.84;;;-2.45;59.24
70589;BME280;58152;49.202;18.744;2023-02-28T04:53:19;98400.19;;;-2.48;59.68
70589;BME280;58152;49.202;18.744;2023-02-28T04:55:45;98402.66;;;-2.52;60.04
70589;BME280;58152;49.202;18.744;2023-02-28T04:58:11;98394.03;;;-2.56;59.90
70589;BME280;58152;49.202;18.744;2023-02-28T05:00:37;98401.78;;;-2.53;60.22
70589;BME280;58152;49.202;18.744;2023-02-28T05:03:02;98400.09;;;-2.52;59.66
70589;BME280;58152;49.202;18.744;2023-02-28T05:05:28;98385.41;;;-2.58;60.30
70589;BME280;58152;49.202;18.744;2023-02-28T05:07:53;98397.41;;;-2.57;60.27
70589;BME280;58152;49.202;18.744;2023-02-28T05:10:21;98397.38;;;-2.59;59.54
70589;BME280;58152;49.202;18.744;2023-02-28T05:12:46;98385.34;;;-2.61;59.85
70589;BME280;58152;49.202;18.744;2023-02-28T05:15:14;98398.31;;;-2.57;59.59
70589;BME280;58152;49.202;18.744;2023-02-28T05:17:39;98398.34;;;-2.55;60.50
70589;BME280;58152;49.202;18.744;2023-02-28T05:20:06;98395.75;;;-2.57;59.65
70589;BME280;58152;49.202;18.744;2023-02-28T05:22:37;98391.34;;;-2.61;60.01
70589;BME280;58152;49.202;18.744;2023-02-28T05:25:04;98406.78;;;-2.61;60.04
70589;BME280;58152;49.202;18.744;2023-02-28T05:27:30;98398.16;;;-2.63;59.94
70589;BME280;58152;49.202;18.744;2023-02-28T05:29:56;98398.13;;;-2.64;60.38
70589;BME280;58152;49.202;18.744;2023-02-28T05:32:22;98383.50;;;-2.67;59.92
70589;BME280;58152;49.202;18.744;2023-02-28T05:34:47;98405.09;;;-2.59;59.53
70589;BME280;58152;49.202;18.744;2023-02-28T05:37:14;98412.81;;;-2.59;60.80
70589;BME280;58152;49.202;18.744;2023-02-28T05:39:41;98415.38;;;-2.59;60.66
70589;BME280;58152;49.202;18.744;2023-02-28T05:42:07;98408.41;;;-2.63;60.12
70589;BME280;58152;49.202;18.744;2023-02-28T05:44:35;98415.28;;;-2.62;59.96
70589;BME280;58152;49.202;18.744;2023-02-28T05:47:00;98407.59;;;-2.62;59.53
70589;BME280;58152;49.202;18.744;2023-02-28T05:49:26;98414.44;;;-2.62;60.32
70589;BME280;58152;49.202;18.744;2023-02-28T05:51:51;98415.25;;;-2.63;60.73
70589;BME280;58152;49.202;18.744;2023-02-28T05:54:17;98424.69;;;-2.62;61.05
70589;BME280;58152;49.202;18.744;2023-02-28T05:57:12;98429.91;;;-2.61;61.13
70589;BME280;58152;49.202;18.744;2023-02-28T05:59:40;98414.28;;;-2.68;60.18
70589;BME280;58152;49.202;18.744;2023-02-28T06:04:57;98416.84;;;-2.70;61.25
70589;BME280;58152;49.202;18.744;2023-02-28T06:07:29;98420.28;;;-2.68;60.07
70589;BME280;58152;49.202;18.744;2023-02-28T06:10:11;98414.09;;;-2.76;61.44
70589;BME280;58152;49.202;18.744;2023-02-28T06:12:37;98438.38;;;-2.65;60.71
70589;BME280;58152;49.202;18.744;2023-02-28T06:15:03;98437.41;;;-2.68;61.17
70589;BME280;58152;49.202;18.744;2023-02-28T06:17:34;98434.84;;;-2.68;61.35
70589;BME280;58152;49.202;18.744;2023-02-28T06:20:09;98429.63;;;-2.71;61.08
70589;BME280;58152;49.202;18.744;2023-02-28T06:22:36;98437.38;;;-2.70;60.97
70589;BME280;58152;49.202;18.744;2023-02-28T06:25:03;98439.06;;;-2.70;60.95
70589;BME280;58152;49.202;18.744;2023-02-28T06:27:28;98443.34;;;-2.71;60.96
70589;BME280;58152;49.202;18.744;2023-02-28T06:29:54;98450.28;;;-2.67;61.16
70589;BME280;58152;49.202;18.744;2023-02-28T06:32:23;98441.63;;;-2.70;61.67
70589;BME280;58152;49.202;18.744;2023-02-28T06:34:48;98444.16;;;-2.72;61.54
70589;BME280;58152;49.202;18.744;2023-02-28T06:37:15;98452.03;;;-2.66;62.12
70589;BME280;58152;49.202;18.744;2023-02-28T06:39:41;98455.47;;;-2.65;60.67
70589;BME280;58152;49.202;18.744;2023-02-28T06:42:06;98452.81;;;-2.68;61.07
70589;BME280;58152;49.202;18.744;2023-02-28T06:44:32;98456.34;;;-2.65;61.39
70589;BME280;58152;49.202;18.744;2023-02-28T06:47:04;98456.25;;;-2.68;60.70
70589;BME280;58152;49.202;18.744;2023-02-28T06:49:31;98458.84;;;-2.66;60.77
70589;BME280;58152;49.202;18.744;2023-02-28T06:51:56;98452.81;;;-2.70;61.64
70589;BME280;58152;49.202;18.744;2023-02-28T06:54:22;98452.06;;;-2.64;61.32
70589;BME280;58152;49.202;18.744;2023-02-28T06:56:47;98448.66;;;-2.63;61.99
70589;BME280;58152;49.202;18.744;2023-02-28T06:59:14;98448.69;;;-2.62;61.19
70589;BME280;58152;49.202;18.744;2023-02-28T07:01:40;98452.22;;;-2.58;61.52
70589;BME280;58152;49.202;18.744;2023-02-28T07:04:06;98454.00;;;-2.56;61.01
70589;BME280;58152;49.202;18.744;2023-02-28T07:06:31;98459.19;;;-2.52;60.73
70589;BME280;58152;49.202;18.744;2023-02-28T07:08:57;98446.31;;;-2.54;61.06
70589;BME280;58152;49.202;18.744;2023-02-28T07:11:25;98452.41;;;-2.50;60.35
70589;BME280;58152;49.202;18.744;2023-02-28T07:13:52;98455.88;;;-2.48;61.43
70589;BME280;58152;49.202;18.744;2023-02-28T07:16:18;98450.78;;;-2.47;60.54
70589;BME280;58152;49.202;18.744;2023-02-28T07:18:43;98456.81;;;-2.45;60.74
70589;BME280;58152;49.202;18.744;2023-02-28T07:21:10;98467.19;;;-2.42;60.63
70589;BME280;58152;49.202;18.744;2023-02-28T07:23:36;98464.63;;;-2.40;60.87
70589;BME280;58152;49.202;18.744;2023-02-28T07:26:03;98463.84;;;-2.38;60.81
70589;BME280;58152;49.202;18.744;2023-02-28T07:28:29;98466.44;;;-2.36;61.03
70589;BME280;58152;49.202;18.744;2023-02-28T07:30:55;98462.13;;;-2.37;60.42
70589;BME280;58152;49.202;18.744;2023-02-28T07:33:20;98472.56;;;-2.30;60.71
70589;BME280;58152;49.202;18.744;2023-02-28T07:35:46;98476.91;;;-2.28;60.54
70589;BME280;58152;49.202;18.744;2023-02-28T07:38:11;98464.84;;;-2.31;60.65
70589;BME280;58152;49.202;18.744;2023-02-28T07:40:39;98472.66;;;-2.26;61.23
70589;BME280;58152;49.202;18.744;2023-02-28T07:43:04;98464.94;;;-2.26;60.30
70589;BME280;58152;49.202;18.744;2023-02-28T07:45:30;98474.50;;;-2.21;60.46
70589;BME280;58152;49.202;18.744;2023-02-28T07:47:57;98482.28;;;-2.18;60.24
70589;BME280;58152;49.202;18.744;2023-02-28T07:50:22;98473.72;;;-2.18;59.90
70589;BME280;58152;49.202;18.744;2023-02-28T07:52:48;98481.53;;;-2.14;59.66
70589;BME280;58152;49.202;18.744;2023-02-28T07:55:14;98471.31;;;-2.11;60.02
70589;BME280;58152;49.202;18.744;2023-02-28T07:57:40;98484.22;;;-2.08;59.76
70589;BME280;58152;49.202;18.744;2023-02-28T08:00:08;98473.94;;;-2.08;59.20
70589;BME280;58152;49.202;18.744;2023-02-28T08:02:38;98468.81;;;-2.08;59.64
70589;BME280;58152;49.202;18.744;2023-02-28T08:05:04;98475.78;;;-2.02;58.64
70589;BME280;58152;49.202;18.744;2023-02-28T08:07:29;98475.84;;;-1.99;59.22
70589;BME280;58152;49.202;18.744;2023-02-28T08:09:55;98477.59;;;-1.98;59.53
70589;BME280;58152;49.202;18.744;2023-02-28T08:12:20;98469.91;;;-1.96;59.34
70589;BME280;58152;49.202;18.744;2023-02-28T08:14:46;98480.25;;;-1.93;59.09
70589;BME280;58152;49.202;18.744;2023-02-28T08:17:11;98481.22;;;-1.88;58.67
70589;BME280;58152;49.202;18.744;2023-02-28T08:19:37;98482.97;;;-1.87;59.05
70589;BME280;58152;49.202;18.744;2023-02-28T08:22:03;98486.47;;;-1.84;58.75
70589;BME280;58152;49.202;18.744;2023-02-28T08:24:28;98482.22;;;-1.83;58.81
70589;BME280;58152;49.202;18.744;2023-02-28T08:26:55;98480.56;;;-1.80;58.67
70589;BME280;58152;49.202;18.744;2023-02-28T08:29:20;98479.78;;;-1.75;58.50
70589;BME280;58152;49.202;18.744;2023-02-28T08:31:45;98479.03;;;-1.71;58.45
70589;BME280;58152;49.202;18.744;2023-02-28T08:34:13;98479.09;;;-1.68;58.57
70589;BME280;58152;49.202;18.744;2023-02-28T08:36:39;98493.88;;;-1.60;58.41
70589;BME280;58152;49.202;18.744;2023-02-28T08:39:06;98494.81;;;-1.55;58.76
70589;BME280;58152;49.202;18.744;2023-02-28T08:41:31;98492.25;;;-1.55;58.85
70589;BME280;58152;49.202;18.744;2023-02-28T08:43:57;98488.84;;;-1.54;58.15
70589;BME280;58152;49.202;18.744;2023-02-28T08:46:23;98486.34;;;-1.49;58.75
70589;BME280;58152;49.202;18.744;2023-02-28T08:48:51;98495.94;;;-1.42;58.66
70589;BME280;58152;49.202;18.744;2023-02-28T08:51:18;98501.13;;;-1.39;58.72
70589;BME280;58152;49.202;18.744;2023-02-28T08:53:47;98488.34;;;-1.36;58.90
70589;BME280;58152;49.202;18.744;2023-02-28T08:56:15;98485.84;;;-1.31;58.39
70589;BME280;58152;49.202;18.744;2023-02-28T08:58:42;98493.66;;;-1.28;58.62
70589;BME280;58152;49.202;18.744;2023-02-28T09:01:12;98486.81;;;-1.24;58.67
70589;BME280;58152;49.202;18.744;2023-02-28T09:03:38;98489.56;;;-1.17;58.41
70589;BME280;58152;49.202;18.744;2023-02-28T09:06:04;98486.09;;;-1.19;58.58
70589;BME280;58152;49.202;18.744;2023-02-28T09:08:30;98489.72;;;-1.09;58.57
70589;BME280;58152;49.202;18.744;2023-02-28T09:10:56;98479.31;;;-1.14;57.61
70589;BME280;58152;49.202;18.744;2023-02-28T09:13:24;98479.34;;;-1.11;57.74
70589;BME280;58152;49.202;18.744;2023-02-28T09:15:49;98475.97;;;-1.08;57.67
70589;BME280;58152;49.202;18.744;2023-02-28T09:18:15;98493.34;;;-0.98;57.49
70589;BME280;58152;49.202;18.744;2023-02-28T09:20:41;98476.94;;;-1.02;57.85
70589;BME280;58152;49.202;18.744;2023-02-28T09:23:08;98475.31;;;-0.98;57.62
70589;BME280;58152;49.202;18.744;2023-02-28T09:25:35;98483.19;;;-0.89;57.82
70589;BME280;58152;49.202;18.744;2023-02-28T09:28:00;98485.09;;;-0.79;57.88
70589;BME280;58152;49.202;18.744;2023-02-28T09:30:26;98481.78;;;-0.71;57.99
70589;BME280;58152;49.202;18.744;2023-02-28T09:32:52;98477.72;;;-0.59;58.05
70589;BME280;58152;49.202;18.744;2023-02-28T09:35:20;98477.97;;;-0.43;57.25
70589;BME280;58152;49.202;18.744;2023-02-28T09:37:47;98479.94;;;-0.27;57.51
70589;BME280;58152;49.202;18.744;2023-02-28T09:40:14;98462.91;;;-0.16;56.85
70589;BME280;58152;49.202;18.744;2023-02-28T09:42:42;98471.75;;;0.00;56.45
70589;BME280;58152;49.202;18.744;2023-02-28T09:45:39;98471.22;;;0.25;55.95
70589;BME280;58152;49.202;18.744;2023-02-28T09:48:23;98475.81;;;0.48;56.01
70589;BME280;58152;49.202;18.744;2023-02-28T09:51:02;98472.53;;;0.63;55.30
70589;BME280;58152;49.202;18.744;2023-02-28T09:53:31;98469.31;;;0.82;54.71
70589;BME280;58152;49.202;18.744;2023-02-28T09:56:18;98465.28;;;1.07;53.91
70589;BME280;58152;49.202;18.744;2023-02-28T09:58:55;98461.13;;;1.23;53.87
70589;BME280;58152;49.202;18.744;2023-02-28T10:01:37;98454.34;;;1.34;53.65
70589;BME280;58152;49.202;18.744;2023-02-28T10:04:22;98464.06;;;1.63;53.42
70589;BME280;58152;49.202;18.744;2023-02-28T10:06:51;98458.16;;;1.81;53.07
70589;BME280;58152;49.202;18.744;2023-02-28T10:09:25;98446.16;;;1.93;52.17
70589;BME280;58152;49.202;18.744;2023-02-28T10:11:52;98458.38;;;2.17;52.55
70589;BME280;58152;49.202;18.744;2023-02-28T10:14:22;98436.88;;;2.31;52.25
70589;BME280;58152;49.202;18.744;2023-02-28T10:17:11;98452.50;;;2.50;51.58
70589;BME280;58152;49.202;18.744;2023-02-28T10:22:16;98449.19;;;2.97;51.37
70589;BME280;58152;49.202;18.744;2023-02-28T10:24:50;98434.53;;;3.12;50.61
70589;BME280;58152;49.202;18.744;2023-02-28T10:27:21;98436.25;;;3.29;50.30
70589;BME280;58152;49.202;18.744;2023-02-28T10:29:50;98438.88;;;3.52;50.08
70589;BME280;58152;49.202;18.744;2023-02-28T10:32:22;98426.75;;;3.64;49.67
70589;BME280;58152;49.202;18.744;2023-02-28T10:35:19;98440.59;;;3.90;48.68
70589;BME280;58152;49.202;18.744;2023-02-28T10:37:48;98426.75;;;3.77;50.19
70589;BME280;58152;49.202;18.744;2023-02-28T10:42:55;98414.56;;;4.12;48.42
70589;BME280;58152;49.202;18.744;2023-02-28T11:03:58;98384.59;;;6.10;45.89
70589;BME280;58152;49.202;18.744;2023-02-28T11:06:42;98399.00;;;6.42;44.41
70589;BME280;58152;49.202;18.744;2023-02-28T11:11:54;98381.44;;;6.55;44.59
70589;BME280;58152;49.202;18.744;2023-02-28T11:14:33;98387.75;;;6.39;44.56
70589;BME280;58152;49.202;18.744;2023-02-28T11:17:26;98388.00;;;6.17;42.44
70589;BME280;58152;49.202;18.744;2023-02-28T11:20:04;98380.97;;;6.22;44.24
70589;BME280;58152;49.202;18.744;2023-02-28T11:22:36;98387.72;;;6.42;44.33
70589;BME280;58152;49.202;18.744;2023-02-28T11:25:33;98377.06;;;6.58;42.00
70589;BME280;58152;49.202;18.744;2023-02-28T11:28:04;98389.84;;;6.78;43.59
70589;BME280;58152;49.202;18.744;2023-02-28T11:32:57;98369.25;;;7.17;42.86
70589;BME280;58152;49.202;18.744;2023-02-28T11:35:36;98380.16;;;7.44;41.76
70589;BME280;58152;49.202;18.744;2023-02-28T11:38:07;98366.09;;;7.52;43.05
70589;BME280;58152;49.202;18.744;2023-02-28T11:48:50;98363.22;;;7.66;39.22
70589;BME280;58152;49.202;18.744;2023-02-28T11:56:48;98350.44;;;8.42;40.96
70589;BME280;58152;49.202;18.744;2023-02-28T12:08:15;98343.69;;;9.11;39.47
70589;BME280;58152;49.202;18.744;2023-02-28T12:16:19;98330.53;;;9.50;37.59
70589;BME280;58152;49.202;18.744;2023-02-28T12:19:03;98327.81;;;9.53;38.22
70589;BME280;58152;49.202;18.744;2023-02-28T12:26:58;98315.19;;;9.68;39.17
70589;BME280;58152;49.202;18.744;2023-02-28T12:29:28;98307.19;;;9.73;39.48
70589;BME280;58152;49.202;18.744;2023-02-28T12:35:02;98303.78;;;9.70;36.49
70589;BME280;58152;49.202;18.744;2023-02-28T12:37:31;98312.63;;;9.67;39.15
70589;BME280;58152;49.202;18.744;2023-02-28T12:40:08;98299.25;;;9.76;38.63
70589;BME280;58152;49.202;18.744;2023-02-28T12:42:46;98294.78;;;10.11;36.27
70589;BME280;58152;49.202;18.744;2023-02-28T12:45:19;98296.72;;;10.35;37.41
70589;BME280;58152;49.202;18.744;2023-02-28T12:47:53;98301.41;;;10.55;37.27
70589;BME280;58152;49.202;18.744;2023-02-28T12:50:22;98288.22;;;10.57;37.22
70589;BME280;58152;49.202;18.744;2023-02-28T12:53:14;98290.28;;;10.75;34.58
70589;BME280;58152;49.202;18.744;2023-02-28T13:02:09;98281.38;;;11.34;33.69
70589;BME280;58152;49.202;18.744;2023-02-28T13:09:57;98270.13;;;12.52;34.20
70589;BME280;58152;49.202;18.744;2023-02-28T13:12:24;98267.94;;;13.07;34.90
70589;BME280;58152;49.202;18.744;2023-02-28T13:14:50;98272.75;;;13.81;34.45
70589;BME280;58152;49.202;18.744;2023-02-28T13:17:24;98267.22;;;14.45;33.96
70589;BME280;58152;49.202;18.744;2023-02-28T13:22:39;98269.25;;;15.48;29.04
70589;BME280;58152;49.202;18.744;2023-02-28T13:28:00;98247.72;;;16.56;31.26
70589;BME280;58152;49.202;18.744;2023-02-28T13:35:45;98255.84;;;17.46;30.05
70589;BME280;58152;49.202;18.744;2023-02-28T13:38:24;98251.75;;;17.70;25.95
70589;BME280;58152;49.202;18.744;2023-02-28T13:40:50;98249.19;;;17.69;29.66
70589;BME280;58152;49.202;18.744;2023-02-28T13:43:17;98253.59;;;17.84;29.24
70589;BME280;58152;49.202;18.744;2023-02-28T13:46:12;98253.31;;;17.89;24.76
70589;BME280;58152;49.202;18.744;2023-02-28T13:48:38;98246.75;;;17.80;28.43
70589;BME280;58152;49.202;18.744;2023-02-28T13:51:45;98246.31;;;17.88;24.66
70589;BME280;58152;49.202;18.744;2023-02-28T13:54:39;98239.94;;;17.76;24.89
70589;BME280;58152;49.202;18.744;2023-02-28T13:57:21;98231.47;;;17.69;27.72
70589;BME280;58152;49.202;18.744;2023-02-28T14:02:37;98232.31;;;17.70;26.20
70589;BME280;58152;49.202;18.744;2023-02-28T14:05:17;98229.72;;;17.68;26.48
70589;BME280;58152;49.202;18.744;2023-02-28T14:07:48;98233.31;;;17.53;27.67
70589;BME280;58152;49.202;18.744;2023-02-28T14:10:30;98216.53;;;17.22;26.11
70589;BME280;58152;49.202;18.744;2023-02-28T14:13:10;98225.50;;;16.90;28.87
70589;BME280;58152;49.202;18.744;2023-02-28T14:15:40;98223.38;;;16.65;28.23
70589;BME280;58152;49.202;18.744;2023-02-28T14:18:19;98216.94;;;16.53;25.76
70589;BME280;58152;49.202;18.744;2023-02-28T14:20:47;98229.16;;;16.24;28.72
70589;BME280;58152;49.202;18.744;2023-02-28T14:23:24;98224.84;;;15.90;28.18
70589;BME280;58152;49.202;18.744;2023-02-28T14:26:19;98210.44;;;15.61;26.57
70589;BME280;58152;49.202;18.744;2023-02-28T14:29:02;98221.59;;;15.33;29.01
70589;BME280;58152;49.202;18.744;2023-02-28T14:31:41;98225.59;;;15.05;29.38
70589;BME280;58152;49.202;18.744;2023-02-28T14:34:31;98227.50;;;14.84;27.43
70589;BME280;58152;49.202;18.744;2023-02-28T14:37:02;98231.34;;;14.60;30.06
70589;BME280;58152;49.202;18.744;2023-02-28T14:39:28;98236.19;;;14.50;30.41
70589;BME280;58152;49.202;18.744;2023-02-28T14:41:58;98221.09;;;14.33;30.03
70589;BME280;58152;49.202;18.744;2023-02-28T14:44:28;98227.75;;;14.23;30.09
70589;BME280;58152;49.202;18.744;2023-02-28T14:47:02;98226.69;;;14.08;30.16
70589;BME280;58152;49.202;18.744;2023-02-28T14:49:57;98225.22;;;14.01;27.89
70589;BME280;58152;49.202;18.744;2023-02-28T14:52:25;98220.44;;;13.90;30.69
70589;BME280;58152;49.202;18.744;2023-02-28T14:55:05;98220.66;;;13.86;29.04
70589;BME280;58152;49.202;18.744;2023-02-28T14:57:40;98227.31;;;13.74;30.06
70589;BME280;58152;49.202;18.744;2023-02-28T15:02:42;98229.72;;;13.60;30.87
70589;BME280;58152;49.202;18.744;2023-02-28T15:07:43;98228.59;;;13.45;30.93
70589;BME280;58152;49.202;18.744;2023-02-28T15:10:25;98223.44;;;13.42;30.29
70589;BME280;58152;49.202;18.744;2023-02-28T15:12:57;98221.91;;;13.38;30.80
70589;BME280;58152;49.202;18.744;2023-02-28T15:21:34;98226.50;;;13.11;29.39
70589;BME280;58152;49.202;18.744;2023-02-28T15:24:22;98216.56;;;12.97;29.84
70589;BME280;58152;49.202;18.744;2023-02-28T15:27:04;98216.03;;;12.87;30.35
70589;BME280;58152;49.202;18.744;2023-02-28T15:29:39;98215.63;;;12.76;31.98
70589;BME280;58152;49.202;18.744;2023-02-28T15:32:21;98215.16;;;12.66;29.95